PWSweather.com
Personal Weather Stations
Station Observations
ROSEGARDEN
Rose Garden, Brentwood, CA 94513

Rose GardenBrentwood, CA 94513

Lat: 37.967503, Lon: -121.721004

Elevation: 85

Station Type: La Crosse 2813

High Low Average
Temperature 65.2°F18.4°C 40.9°F4.9°C 54.2°F12.3°C
Dew Point 41.4°F5.2°C 26.2°F-3.2°C 33.7°F0.9°C
Winds 15.2 mph 24.5 kmh 0.2 mph 0.3 kmh 6.0 mph W9.7 kmh W
Wind Gusts 19.2 mph30.9 kmh 1.3 mph2.1 kmh 10.0 mph16.1 kmh
Humidity 77% 25% 48%
Pressure 30.19 in1022.4 mb 30.07 in1018.3 mb -
Precipitation 0.27 in6.9 mm - -
Hour Temp Dew Point Humidity Winds Wind Gusts Pressure Precip Precip Rate Daily Precip Total
08:28 AM 47.9°F8.8°C 33.4°F0.8°C 57% 5.8 mph W9.3 kmh W 10.7 mph17.2 kmh 30.13 in1020.3 mb 0.00 in0.0 mm 0.00 in/hr0.0 mm/hr 0.00 in0.0 mm
08:33 AM 48.2°F9.0°C 33.2°F0.7°C 56% 4.3 mph WNW6.9 kmh WNW 10.7 mph17.2 kmh 30.13 in1020.3 mb 0.00 in0.0 mm 0.00 in/hr0.0 mm/hr 0.00 in0.0 mm
08:39 AM 48.2°F9.0°C 32.8°F0.4°C 55% 6.1 mph NW9.8 kmh NW 11.4 mph18.3 kmh 30.13 in1020.3 mb 0.00 in0.0 mm 0.00 in/hr0.0 mm/hr 0.00 in0.0 mm
08:40 AM 52.0°F11.1°C 41.4°F5.2°C 67% 9.3 mph WSW15.0 kmh WSW 12.1 mph19.5 kmh 30.08 in1018.6 mb 0.07 in1.8 mm 4.20 in/hr106.7 mm/hr 0.08 in2.0 mm
08:41 AM 51.7°F10.9°C 38.6°F3.7°C 61% 5.8 mph WSW9.3 kmh WSW 13.4 mph21.6 kmh 30.19 in1022.4 mb 0.00 in0.0 mm 0.00 in/hr0.0 mm/hr 0.07 in1.8 mm
08:42 AM 41.6°F5.3°C 32.2°F0.1°C 69% 1.9 mph W3.1 kmh W 4.9 mph7.9 kmh 30.11 in1019.6 mb 0.00 in0.0 mm 0.00 in/hr0.0 mm/hr 0.07 in1.8 mm
08:44 AM 48.4°F9.1°C 33.0°F0.6°C 55% 8.2 mph W13.2 kmh W 11.4 mph18.3 kmh 30.13 in1020.3 mb 0.00 in0.0 mm 0.00 in/hr0.0 mm/hr 0.07 in1.8 mm
08:49 AM 48.6°F9.2°C 33.6°F0.9°C 56% 6.0 mph W9.7 kmh W 11.2 mph18.0 kmh 30.13 in1020.3 mb 0.00 in0.0 mm 0.00 in/hr0.0 mm/hr 0.07 in1.8 mm
08:54 AM 49.0°F9.4°C 33.9°F1.1°C 56% 5.2 mph W8.4 kmh W 11.0 mph17.7 kmh 30.13 in1020.3 mb 0.00 in0.0 mm 0.00 in/hr0.0 mm/hr 0.07 in1.8 mm
08:59 AM 49.1°F9.5°C 33.7°F0.9°C 55% 3.3 mph WNW5.3 kmh WNW 9.6 mph15.4 kmh 30.13 in1020.3 mb 0.00 in0.0 mm 0.00 in/hr0.0 mm/hr 0.07 in1.8 mm
09:04 AM 49.5°F9.7°C 33.5°F0.8°C 54% 6.9 mph W11.1 kmh W 11.4 mph18.3 kmh 30.13 in1020.3 mb 0.00 in0.0 mm 0.00 in/hr0.0 mm/hr 0.07 in1.8 mm
09:09 AM 49.7°F9.8°C 32.8°F0.4°C 52% 8.3 mph W13.4 kmh W 11.4 mph18.3 kmh 30.13 in1020.3 mb 0.00 in0.0 mm 0.00 in/hr0.0 mm/hr 0.07 in1.8 mm
09:15 AM 49.9°F9.9°C 33.4°F0.8°C 53% 3.6 mph NW5.8 kmh NW 9.8 mph15.8 kmh 30.13 in1020.3 mb 0.00 in0.0 mm 0.00 in/hr0.0 mm/hr 0.07 in1.8 mm
09:20 AM 50.2°F10.1°C 33.8°F1.0°C 53% 6.4 mph W10.3 kmh W 9.4 mph15.1 kmh 30.13 in1020.3 mb 0.00 in0.0 mm 0.00 in/hr0.0 mm/hr 0.07 in1.8 mm
09:25 AM 50.8°F10.4°C 33.3°F0.7°C 51% 4.5 mph W7.2 kmh W 9.4 mph15.1 kmh 30.13 in1020.3 mb 0.00 in0.0 mm 0.00 in/hr0.0 mm/hr 0.07 in1.8 mm
09:30 AM 50.9°F10.5°C 33.0°F0.6°C 50% 6.9 mph W11.1 kmh W 9.4 mph15.1 kmh 30.13 in1020.3 mb 0.00 in0.0 mm 0.00 in/hr0.0 mm/hr 0.07 in1.8 mm
09:35 AM 51.1°F10.6°C 33.2°F0.7°C 50% 8.5 mph W13.7 kmh W 11.2 mph18.0 kmh 30.13 in1020.3 mb 0.00 in0.0 mm 0.00 in/hr0.0 mm/hr 0.07 in1.8 mm
09:40 AM 51.5°F10.8°C 32.9°F0.5°C 49% 10.1 mph W16.3 kmh W 11.6 mph18.7 kmh 30.14 in1020.7 mb 0.00 in0.0 mm 0.00 in/hr0.0 mm/hr 0.07 in1.8 mm
09:45 AM 52.0°F11.1°C 33.5°F0.8°C 49% 2.2 mph NNW3.5 kmh NNW 11.6 mph18.7 kmh 30.13 in1020.3 mb 0.00 in0.0 mm 0.00 in/hr0.0 mm/hr 0.07 in1.8 mm
09:50 AM 52.7°F11.5°C 32.9°F0.5°C 47% 3.1 mph WNW5.0 kmh WNW 9.8 mph15.8 kmh 30.14 in1020.7 mb 0.00 in0.0 mm 0.00 in/hr0.0 mm/hr 0.07 in1.8 mm
09:55 AM 53.3°F11.8°C 33.0°F0.6°C 46% 3.2 mph WNW5.1 kmh WNW 8.5 mph13.7 kmh 30.14 in1020.7 mb 0.00 in0.0 mm 0.00 in/hr0.0 mm/hr 0.07 in1.8 mm
10:00 AM 53.6°F12.0°C 33.8°F1.0°C 47% 0.9 mph N1.4 kmh N 8.5 mph13.7 kmh 30.13 in1020.3 mb 0.00 in0.0 mm 0.00 in/hr0.0 mm/hr 0.07 in1.8 mm
10:05 AM 54.4°F12.4°C 33.8°F1.0°C 46% 4.1 mph WSW6.6 kmh WSW 7.4 mph11.9 kmh 30.13 in1020.3 mb 0.00 in0.0 mm 0.00 in/hr0.0 mm/hr 0.07 in1.8 mm
10:10 AM 54.5°F12.5°C 34.6°F1.4°C 47% 2.5 mph W4.0 kmh W 7.6 mph12.2 kmh 30.13 in1020.3 mb 0.00 in0.0 mm 0.00 in/hr0.0 mm/hr 0.07 in1.8 mm
10:15 AM 54.9°F12.7°C 33.2°F0.7°C 44% 4.0 mph NW6.4 kmh NW 7.6 mph12.2 kmh 30.13 in1020.3 mb 0.00 in0.0 mm 0.00 in/hr0.0 mm/hr 0.07 in1.8 mm
10:20 AM 55.1°F12.8°C 32.9°F0.5°C 43% 3.5 mph NNW5.6 kmh NNW 5.4 mph8.7 kmh 30.13 in1020.3 mb 0.00 in0.0 mm 0.00 in/hr0.0 mm/hr 0.07 in1.8 mm
10:25 AM 55.4°F13.0°C 33.2°F0.7°C 43% 1.7 mph NW2.7 kmh NW 7.6 mph12.2 kmh 30.13 in1020.3 mb 0.00 in0.0 mm 0.00 in/hr0.0 mm/hr 0.07 in1.8 mm
10:30 AM 55.6°F13.1°C 33.3°F0.7°C 43% 2.9 mph NW4.7 kmh NW 9.4 mph15.1 kmh 30.13 in1020.3 mb 0.00 in0.0 mm 0.00 in/hr0.0 mm/hr 0.07 in1.8 mm
10:35 AM 56.0°F13.3°C 33.7°F0.9°C 43% 2.1 mph NNW3.4 kmh NNW 9.4 mph15.1 kmh 30.13 in1020.3 mb 0.00 in0.0 mm 0.00 in/hr0.0 mm/hr 0.07 in1.8 mm
10:40 AM 56.2°F13.4°C 33.3°F0.7°C 42% 2.4 mph NW3.9 kmh NW 7.6 mph12.2 kmh 30.13 in1020.3 mb 0.00 in0.0 mm 0.00 in/hr0.0 mm/hr 0.07 in1.8 mm
10:45 AM 56.3°F13.5°C 32.9°F0.5°C 41% 3.7 mph W6.0 kmh W 7.6 mph12.2 kmh 30.13 in1020.3 mb 0.00 in0.0 mm 0.00 in/hr0.0 mm/hr 0.07 in1.8 mm
10:49 AM 56.5°F13.6°C 33.0°F0.6°C 41% 4.2 mph WNW6.8 kmh WNW 7.6 mph12.2 kmh 30.13 in1020.3 mb 0.00 in0.0 mm 0.00 in/hr0.0 mm/hr 0.07 in1.8 mm
10:54 AM 57.2°F14.0°C 33.1°F0.6°C 40% 1.9 mph NNW3.1 kmh NNW 6.5 mph10.5 kmh 30.12 in1020.0 mb 0.00 in0.0 mm 0.00 in/hr0.0 mm/hr 0.07 in1.8 mm
10:59 AM 57.4°F14.1°C 32.6°F0.3°C 39% 3.9 mph N6.3 kmh N 6.7 mph10.8 kmh 30.12 in1020.0 mb 0.00 in0.0 mm 0.00 in/hr0.0 mm/hr 0.07 in1.8 mm
11:04 AM 57.6°F14.2°C 32.8°F0.4°C 39% 2.0 mph W3.2 kmh W 6.7 mph10.8 kmh 30.12 in1020.0 mb 0.00 in0.0 mm 0.00 in/hr0.0 mm/hr 0.07 in1.8 mm
11:09 AM 58.0°F14.4°C 33.0°F0.6°C 39% 3.7 mph WSW6.0 kmh WSW 7.2 mph11.6 kmh 30.12 in1020.0 mb 0.00 in0.0 mm 0.00 in/hr0.0 mm/hr 0.07 in1.8 mm
11:14 AM 58.1°F14.5°C 33.9°F1.1°C 40% 2.6 mph WSW4.2 kmh WSW 7.2 mph11.6 kmh 30.12 in1020.0 mb 0.00 in0.0 mm 0.00 in/hr0.0 mm/hr 0.07 in1.8 mm
11:19 AM 58.0°F14.4°C 31.7°F-0.2°C 37% 4.4 mph W7.1 kmh W 9.8 mph15.8 kmh 30.12 in1020.0 mb 0.00 in0.0 mm 0.00 in/hr0.0 mm/hr 0.07 in1.8 mm
11:24 AM 58.1°F14.5°C 33.2°F0.7°C 39% 3.6 mph WNW5.8 kmh WNW 9.8 mph15.8 kmh 30.12 in1020.0 mb 0.00 in0.0 mm 0.00 in/hr0.0 mm/hr 0.07 in1.8 mm
11:29 AM 58.3°F14.6°C 32.7°F0.4°C 38% 4.9 mph W7.9 kmh W 8.5 mph13.7 kmh 30.11 in1019.6 mb 0.00 in0.0 mm 0.00 in/hr0.0 mm/hr 0.07 in1.8 mm
11:34 AM 58.7°F14.8°C 33.0°F0.6°C 38% 1.6 mph WNW2.6 kmh WNW 7.2 mph11.6 kmh 30.11 in1019.6 mb 0.00 in0.0 mm 0.00 in/hr0.0 mm/hr 0.07 in1.8 mm
11:39 AM 58.5°F14.7°C 32.9°F0.5°C 38% 2.6 mph NNW4.2 kmh NNW 7.6 mph12.2 kmh 30.11 in1019.6 mb 0.00 in0.0 mm 0.00 in/hr0.0 mm/hr 0.07 in1.8 mm
11:44 AM 58.5°F14.7°C 33.6°F0.9°C 39% 3.0 mph NW4.8 kmh NW 7.6 mph12.2 kmh 30.11 in1019.6 mb 0.00 in0.0 mm 0.00 in/hr0.0 mm/hr 0.07 in1.8 mm
11:49 AM 58.0°F14.4°C 33.0°F0.6°C 39% 2.6 mph WNW4.2 kmh WNW 5.8 mph9.3 kmh 30.11 in1019.6 mb 0.00 in0.0 mm 0.00 in/hr0.0 mm/hr 0.07 in1.8 mm
11:54 AM 58.0°F14.4°C 32.4°F0.2°C 38% 4.4 mph W7.1 kmh W 8.3 mph13.4 kmh 30.11 in1019.6 mb 0.00 in0.0 mm 0.00 in/hr0.0 mm/hr 0.07 in1.8 mm
11:59 AM 58.3°F14.6°C 32.7°F0.4°C 38% 3.7 mph NW6.0 kmh NW 8.3 mph13.4 kmh 30.11 in1019.6 mb 0.00 in0.0 mm 0.00 in/hr0.0 mm/hr 0.07 in1.8 mm
12:04 PM 58.5°F14.7°C 32.1°F0.1°C 37% 2.5 mph N4.0 kmh N 5.4 mph8.7 kmh 30.11 in1019.6 mb 0.00 in0.0 mm 0.00 in/hr0.0 mm/hr 0.07 in1.8 mm
12:09 PM 58.3°F14.6°C 32.0°F0.0°C 37% 5.1 mph WSW8.2 kmh WSW 8.3 mph13.4 kmh 30.11 in1019.6 mb 0.00 in0.0 mm 0.00 in/hr0.0 mm/hr 0.07 in1.8 mm
12:14 PM 58.7°F14.8°C 31.6°F-0.2°C 36% 5.4 mph NW8.7 kmh NW 8.7 mph14.0 kmh 30.11 in1019.6 mb 0.00 in0.0 mm 0.00 in/hr0.0 mm/hr 0.07 in1.8 mm
12:19 PM 58.9°F14.9°C 31.8°F-0.1°C 36% 5.8 mph W9.3 kmh W 11.2 mph18.0 kmh 30.11 in1019.6 mb 0.00 in0.0 mm 0.00 in/hr0.0 mm/hr 0.07 in1.8 mm
12:24 PM 59.6°F15.3°C 32.4°F0.2°C 36% 3.6 mph WSW5.8 kmh WSW 11.2 mph18.0 kmh 30.10 in1019.3 mb 0.00 in0.0 mm 0.00 in/hr0.0 mm/hr 0.07 in1.8 mm
12:29 PM 60.1°F15.6°C 29.4°F-1.4°C 31% 6.5 mph NW10.5 kmh NW 9.2 mph14.8 kmh 30.10 in1019.3 mb 0.00 in0.0 mm 0.00 in/hr0.0 mm/hr 0.07 in1.8 mm
12:34 PM 59.9°F15.5°C 31.3°F-0.4°C 34% 2.3 mph NW3.7 kmh NW 9.2 mph14.8 kmh 30.10 in1019.3 mb 0.00 in0.0 mm 0.00 in/hr0.0 mm/hr 0.07 in1.8 mm
12:39 PM 60.7°F15.9°C 31.1°F-0.5°C 33% 2.8 mph WNW4.5 kmh WNW 8.5 mph13.7 kmh 30.10 in1019.3 mb 0.00 in0.0 mm 0.00 in/hr0.0 mm/hr 0.07 in1.8 mm
12:44 PM 60.8°F16.0°C 31.3°F-0.4°C 33% 7.3 mph W11.7 kmh W 9.8 mph15.8 kmh 30.10 in1019.3 mb 0.00 in0.0 mm 0.00 in/hr0.0 mm/hr 0.07 in1.8 mm
12:49 PM 60.1°F15.6°C 30.0°F-1.1°C 32% 8.4 mph W13.5 kmh W 11.9 mph19.2 kmh 30.10 in1019.3 mb 0.00 in0.0 mm 0.00 in/hr0.0 mm/hr 0.07 in1.8 mm
12:54 PM 59.9°F15.5°C 30.6°F-0.8°C 33% 6.8 mph WSW10.9 kmh WSW 11.9 mph19.2 kmh 30.10 in1019.3 mb 0.00 in0.0 mm 0.00 in/hr0.0 mm/hr 0.07 in1.8 mm
12:59 PM 60.3°F15.7°C 30.9°F-0.6°C 33% 4.3 mph W6.9 kmh W 11.9 mph19.2 kmh 30.09 in1019.0 mb 0.00 in0.0 mm 0.00 in/hr0.0 mm/hr 0.07 in1.8 mm
01:04 PM 60.7°F15.9°C 31.1°F-0.5°C 33% 4.5 mph WSW7.2 kmh WSW 10.5 mph16.9 kmh 30.09 in1019.0 mb 0.00 in0.0 mm 0.00 in/hr0.0 mm/hr 0.07 in1.8 mm
01:09 PM 61.6°F16.4°C 31.2°F-0.4°C 32% 6.3 mph WSW10.1 kmh WSW 11.0 mph17.7 kmh 30.09 in1019.0 mb 0.00 in0.0 mm 0.00 in/hr0.0 mm/hr 0.07 in1.8 mm
01:14 PM 62.1°F16.7°C 31.1°F-0.5°C 31% 5.0 mph W8.0 kmh W 11.0 mph17.7 kmh 30.09 in1019.0 mb 0.00 in0.0 mm 0.00 in/hr0.0 mm/hr 0.07 in1.8 mm
01:19 PM 62.3°F16.8°C 28.5°F-1.9°C 28% 6.6 mph NW10.6 kmh NW 9.2 mph14.8 kmh 30.09 in1019.0 mb 0.00 in0.0 mm 0.00 in/hr0.0 mm/hr 0.07 in1.8 mm
01:24 PM 61.9°F16.6°C 29.2°F-1.6°C 29% 7.9 mph W12.7 kmh W 10.5 mph16.9 kmh 30.09 in1019.0 mb 0.00 in0.0 mm 0.00 in/hr0.0 mm/hr 0.07 in1.8 mm
01:29 PM 61.9°F16.6°C 30.9°F-0.6°C 31% 2.3 mph W3.7 kmh W 10.5 mph16.9 kmh 30.09 in1019.0 mb 0.00 in0.0 mm 0.00 in/hr0.0 mm/hr 0.07 in1.8 mm
01:34 PM 62.3°F16.8°C 29.5°F-1.4°C 29% 6.0 mph WSW9.7 kmh WSW 8.5 mph13.7 kmh 30.09 in1019.0 mb 0.00 in0.0 mm 0.00 in/hr0.0 mm/hr 0.07 in1.8 mm
01:39 PM 62.8°F17.1°C 29.0°F-1.7°C 28% 8.2 mph WSW13.2 kmh WSW 9.8 mph15.8 kmh 30.09 in1019.0 mb 0.00 in0.0 mm 0.00 in/hr0.0 mm/hr 0.07 in1.8 mm
01:45 PM 62.3°F16.8°C 27.5°F-2.5°C 27% 5.6 mph WNW9.0 kmh WNW 12.8 mph20.6 kmh 30.09 in1019.0 mb 0.00 in0.0 mm 0.00 in/hr0.0 mm/hr 0.07 in1.8 mm
01:50 PM 61.9°F16.6°C 27.3°F-2.6°C 27% 6.5 mph WSW10.5 kmh WSW 12.8 mph20.6 kmh 30.09 in1019.0 mb 0.00 in0.0 mm 0.00 in/hr0.0 mm/hr 0.07 in1.8 mm
01:55 PM 62.5°F16.9°C 27.7°F-2.4°C 27% 5.4 mph W8.7 kmh W 10.5 mph16.9 kmh 30.09 in1019.0 mb 0.00 in0.0 mm 0.00 in/hr0.0 mm/hr 0.07 in1.8 mm
02:00 PM 63.0°F17.2°C 26.2°F-3.2°C 25% 6.7 mph WSW10.8 kmh WSW 9.8 mph15.8 kmh 30.09 in1019.0 mb 0.00 in0.0 mm 0.00 in/hr0.0 mm/hr 0.07 in1.8 mm
02:05 PM 63.4°F17.4°C 27.6°F-2.4°C 26% 4.0 mph W6.4 kmh W 9.8 mph15.8 kmh 30.09 in1019.0 mb 0.00 in0.0 mm 0.00 in/hr0.0 mm/hr 0.07 in1.8 mm
02:10 PM 63.0°F17.2°C 28.2°F-2.1°C 27% 2.3 mph NNW3.7 kmh NNW 9.2 mph14.8 kmh 30.09 in1019.0 mb 0.00 in0.0 mm 0.00 in/hr0.0 mm/hr 0.07 in1.8 mm
02:15 PM 63.4°F17.4°C 28.5°F-1.9°C 27% 5.9 mph WSW9.5 kmh WSW 9.4 mph15.1 kmh 30.09 in1019.0 mb 0.00 in0.0 mm 0.00 in/hr0.0 mm/hr 0.07 in1.8 mm
02:20 PM 63.7°F17.6°C 29.8°F-1.2°C 28% 6.2 mph WSW10.0 kmh WSW 9.4 mph15.1 kmh 30.08 in1018.6 mb 0.00 in0.0 mm 0.00 in/hr0.0 mm/hr 0.07 in1.8 mm
02:25 PM 64.4°F18.0°C 31.4°F-0.3°C 29% 5.3 mph WSW8.5 kmh WSW 8.5 mph13.7 kmh 30.08 in1018.6 mb 0.00 in0.0 mm 0.00 in/hr0.0 mm/hr 0.07 in1.8 mm
02:30 PM 64.6°F18.1°C 30.6°F-0.8°C 28% 7.2 mph WSW11.6 kmh WSW 11.9 mph19.2 kmh 30.08 in1018.6 mb 0.00 in0.0 mm 0.00 in/hr0.0 mm/hr 0.07 in1.8 mm
02:35 PM 64.4°F18.0°C 31.4°F-0.3°C 29% 2.9 mph W4.7 kmh W 15.0 mph24.1 kmh 30.08 in1018.6 mb 0.00 in0.0 mm 0.00 in/hr0.0 mm/hr 0.07 in1.8 mm
02:40 PM 64.8°F18.2°C 31.8°F-0.1°C 29% 1.4 mph NW2.3 kmh NW 15.0 mph24.1 kmh 30.08 in1018.6 mb 0.00 in0.0 mm 0.00 in/hr0.0 mm/hr 0.07 in1.8 mm
02:45 PM 65.0°F18.3°C 31.9°F-0.1°C 29% 2.6 mph NW4.2 kmh NW 7.4 mph11.9 kmh 30.08 in1018.6 mb 0.00 in0.0 mm 0.00 in/hr0.0 mm/hr 0.07 in1.8 mm
02:49 PM 65.2°F18.4°C 31.1°F-0.5°C 28% 6.4 mph WSW10.3 kmh WSW 9.8 mph15.8 kmh 30.08 in1018.6 mb 0.00 in0.0 mm 0.00 in/hr0.0 mm/hr 0.07 in1.8 mm
02:54 PM 64.8°F18.2°C 30.8°F-0.7°C 28% 3.7 mph W6.0 kmh W 10.5 mph16.9 kmh 30.07 in1018.3 mb 0.00 in0.0 mm 0.00 in/hr0.0 mm/hr 0.07 in1.8 mm
02:59 PM 64.8°F18.2°C 31.8°F-0.1°C 29% 5.1 mph WNW8.2 kmh WNW 10.5 mph16.9 kmh 30.07 in1018.3 mb 0.00 in0.0 mm 0.00 in/hr0.0 mm/hr 0.07 in1.8 mm
03:04 PM 65.0°F18.3°C 30.9°F-0.6°C 28% 5.4 mph SW8.7 kmh SW 10.3 mph16.6 kmh 30.07 in1018.3 mb 0.00 in0.0 mm 0.00 in/hr0.0 mm/hr 0.07 in1.8 mm
03:09 PM 65.2°F18.4°C 32.0°F0.0°C 29% 3.2 mph W5.1 kmh W 7.2 mph11.6 kmh 30.07 in1018.3 mb 0.00 in0.0 mm 0.00 in/hr0.0 mm/hr 0.07 in1.8 mm
03:14 PM 64.8°F18.2°C 31.8°F-0.1°C 29% 6.1 mph W9.8 kmh W 8.3 mph13.4 kmh 30.07 in1018.3 mb 0.00 in0.0 mm 0.00 in/hr0.0 mm/hr 0.07 in1.8 mm
03:19 PM 64.6°F18.1°C 31.6°F-0.2°C 29% 5.6 mph W9.0 kmh W 9.2 mph14.8 kmh 30.07 in1018.3 mb 0.00 in0.0 mm 0.00 in/hr0.0 mm/hr 0.07 in1.8 mm
03:24 PM 63.7°F17.6°C 30.8°F-0.7°C 29% 11.5 mph WSW18.5 kmh WSW 13.9 mph22.4 kmh 30.07 in1018.3 mb 0.00 in0.0 mm 0.00 in/hr0.0 mm/hr 0.07 in1.8 mm
03:29 PM 64.4°F18.0°C 32.4°F0.2°C 30% 2.9 mph SW4.7 kmh SW 13.9 mph22.4 kmh 30.07 in1018.3 mb 0.00 in0.0 mm 0.00 in/hr0.0 mm/hr 0.07 in1.8 mm
03:34 PM 64.6°F18.1°C 32.6°F0.3°C 30% 2.7 mph NNW4.3 kmh NNW 11.6 mph18.7 kmh 30.07 in1018.3 mb 0.00 in0.0 mm 0.00 in/hr0.0 mm/hr 0.07 in1.8 mm
03:39 PM 64.4°F18.0°C 30.4°F-0.9°C 28% 11.1 mph W17.9 kmh W 14.5 mph23.3 kmh 30.07 in1018.3 mb 0.00 in0.0 mm 0.00 in/hr0.0 mm/hr 0.07 in1.8 mm
03:44 PM 64.3°F17.9°C 32.2°F0.1°C 30% 7.7 mph WSW12.4 kmh WSW 14.5 mph23.3 kmh 30.07 in1018.3 mb 0.00 in0.0 mm 0.00 in/hr0.0 mm/hr 0.07 in1.8 mm
03:49 PM 64.1°F17.8°C 31.1°F-0.5°C 29% 6.6 mph W10.6 kmh W 12.5 mph20.1 kmh 30.07 in1018.3 mb 0.00 in0.0 mm 0.00 in/hr0.0 mm/hr 0.07 in1.8 mm
03:54 PM 63.7°F17.6°C 30.8°F-0.7°C 29% 5.6 mph W9.0 kmh W 12.5 mph20.1 kmh 30.07 in1018.3 mb 0.00 in0.0 mm 0.00 in/hr0.0 mm/hr 0.07 in1.8 mm
03:59 PM 63.9°F17.7°C 32.0°F0.0°C 30% 4.5 mph WNW7.2 kmh WNW 14.8 mph23.8 kmh 30.07 in1018.3 mb 0.00 in0.0 mm 0.00 in/hr0.0 mm/hr 0.07 in1.8 mm
04:04 PM 63.9°F17.7°C 30.0°F-1.1°C 28% 7.8 mph WSW12.6 kmh WSW 14.8 mph23.8 kmh 30.07 in1018.3 mb 0.00 in0.0 mm 0.00 in/hr0.0 mm/hr 0.07 in1.8 mm
04:09 PM 63.9°F17.7°C 31.0°F-0.6°C 29% 4.7 mph NW7.6 kmh NW 14.3 mph23.0 kmh 30.07 in1018.3 mb 0.00 in0.0 mm 0.00 in/hr0.0 mm/hr 0.07 in1.8 mm
04:14 PM 64.1°F17.8°C 31.1°F-0.5°C 29% 10.1 mph W16.3 kmh W 14.3 mph23.0 kmh 30.08 in1018.6 mb 0.00 in0.0 mm 0.00 in/hr0.0 mm/hr 0.07 in1.8 mm
04:19 PM 63.0°F17.2°C 32.6°F0.3°C 32% 6.5 mph NW10.5 kmh NW 14.3 mph23.0 kmh 30.08 in1018.6 mb 0.00 in0.0 mm 0.00 in/hr0.0 mm/hr 0.07 in1.8 mm
04:24 PM 63.2°F17.3°C 32.7°F0.4°C 32% 6.2 mph NNW10.0 kmh NNW 11.4 mph18.3 kmh 30.08 in1018.6 mb 0.00 in0.0 mm 0.00 in/hr0.0 mm/hr 0.07 in1.8 mm
04:29 PM 63.2°F17.3°C 32.7°F0.4°C 32% 5.7 mph NW9.2 kmh NW 9.4 mph15.1 kmh 30.08 in1018.6 mb 0.00 in0.0 mm 0.00 in/hr0.0 mm/hr 0.07 in1.8 mm
04:34 PM 61.7°F16.5°C 32.1°F0.1°C 33% 6.2 mph N10.0 kmh N 9.8 mph15.8 kmh 30.08 in1018.6 mb 0.00 in0.0 mm 0.00 in/hr0.0 mm/hr 0.07 in1.8 mm
04:39 PM 60.8°F16.0°C 32.0°F0.0°C 34% 5.8 mph NW9.3 kmh NW 9.8 mph15.8 kmh 30.08 in1018.6 mb 0.00 in0.0 mm 0.00 in/hr0.0 mm/hr 0.07 in1.8 mm
04:44 PM 59.6°F15.3°C 30.2°F-1.0°C 33% 8.5 mph N13.7 kmh N 15.0 mph24.1 kmh 30.08 in1018.6 mb 0.00 in0.0 mm 0.00 in/hr0.0 mm/hr 0.07 in1.8 mm
04:49 PM 58.5°F14.7°C 29.3°F-1.5°C 33% 8.8 mph N14.2 kmh N 15.0 mph24.1 kmh 30.09 in1019.0 mb 0.00 in0.0 mm 0.00 in/hr0.0 mm/hr 0.07 in1.8 mm
04:54 PM 57.1°F13.9°C 31.6°F-0.2°C 38% 9.9 mph N15.9 kmh N 15.0 mph24.1 kmh 30.09 in1019.0 mb 0.00 in0.0 mm 0.00 in/hr0.0 mm/hr 0.07 in1.8 mm
04:59 PM 56.0°F13.3°C 31.3°F-0.4°C 39% 11.1 mph N17.9 kmh N 19.2 mph30.9 kmh 30.09 in1019.0 mb 0.00 in0.0 mm 0.00 in/hr0.0 mm/hr 0.07 in1.8 mm
05:04 PM 55.4°F13.0°C 30.1°F-1.1°C 38% 6.3 mph NNW10.1 kmh NNW 19.2 mph30.9 kmh 30.10 in1019.3 mb 0.00 in0.0 mm 0.00 in/hr0.0 mm/hr 0.07 in1.8 mm
05:09 PM 54.7°F12.6°C 32.5°F0.3°C 43% 10.1 mph N16.3 kmh N 13.6 mph21.9 kmh 30.10 in1019.3 mb 0.00 in0.0 mm 0.00 in/hr0.0 mm/hr 0.07 in1.8 mm
05:14 PM 54.2°F12.3°C 32.6°F0.3°C 44% 12.4 mph N20.0 kmh N 15.7 mph25.3 kmh 30.10 in1019.3 mb 0.00 in0.0 mm 0.00 in/hr0.0 mm/hr 0.07 in1.8 mm
05:19 PM 54.0°F12.2°C 32.4°F0.2°C 44% 6.1 mph NE9.8 kmh NE 15.7 mph25.3 kmh 30.09 in1019.0 mb 0.00 in0.0 mm 0.00 in/hr0.0 mm/hr 0.07 in1.8 mm
05:24 PM 53.8°F12.1°C 32.9°F0.5°C 45% 6.6 mph ENE10.6 kmh ENE 14.5 mph23.3 kmh 30.09 in1019.0 mb 0.00 in0.0 mm 0.00 in/hr0.0 mm/hr 0.07 in1.8 mm
05:29 PM 53.8°F12.1°C 31.7°F-0.2°C 43% 4.5 mph NE7.2 kmh NE 8.1 mph13.0 kmh 30.09 in1019.0 mb 0.00 in0.0 mm 0.00 in/hr0.0 mm/hr 0.07 in1.8 mm
05:34 PM 54.4°F12.4°C 31.7°F-0.2°C 42% 3.7 mph NE6.0 kmh NE 7.2 mph11.6 kmh 30.09 in1019.0 mb 0.00 in0.0 mm 0.00 in/hr0.0 mm/hr 0.07 in1.8 mm
05:40 PM 55.3°F12.9°C 31.9°F-0.1°C 41% 3.8 mph NNE6.1 kmh NNE 5.8 mph9.3 kmh 30.09 in1019.0 mb 0.00 in0.0 mm 0.00 in/hr0.0 mm/hr 0.07 in1.8 mm
05:45 PM 56.3°F13.5°C 32.9°F0.5°C 41% 1.7 mph NW2.7 kmh NW 5.8 mph9.3 kmh 30.09 in1019.0 mb 0.00 in0.0 mm 0.00 in/hr0.0 mm/hr 0.07 in1.8 mm
05:50 PM 56.5°F13.6°C 32.5°F0.3°C 40% 2.6 mph W4.2 kmh W 3.6 mph5.8 kmh 30.09 in1019.0 mb 0.00 in0.0 mm 0.00 in/hr0.0 mm/hr 0.07 in1.8 mm
05:55 PM 56.3°F13.5°C 32.3°F0.2°C 40% 1.5 mph NW2.4 kmh NW 3.6 mph5.8 kmh 30.10 in1019.3 mb 0.00 in0.0 mm 0.00 in/hr0.0 mm/hr 0.07 in1.8 mm
06:00 PM 56.0°F13.3°C 32.6°F0.3°C 41% 0.9 mph NW1.4 kmh NW 3.8 mph6.1 kmh 30.10 in1019.3 mb 0.00 in0.0 mm 0.00 in/hr0.0 mm/hr 0.07 in1.8 mm
06:05 PM 55.8°F13.2°C 32.9°F0.5°C 42% 1.6 mph NW2.6 kmh NW 3.8 mph6.1 kmh 30.10 in1019.3 mb 0.00 in0.0 mm 0.00 in/hr0.0 mm/hr 0.07 in1.8 mm
06:10 PM 55.8°F13.2°C 32.9°F0.5°C 42% 1.6 mph NW2.6 kmh NW 3.4 mph5.5 kmh 30.10 in1019.3 mb 0.00 in0.0 mm 0.00 in/hr0.0 mm/hr 0.07 in1.8 mm
06:15 PM 55.4°F13.0°C 33.8°F1.0°C 44% 3.4 mph N5.5 kmh N 6.3 mph10.1 kmh 30.10 in1019.3 mb 0.00 in0.0 mm 0.00 in/hr0.0 mm/hr 0.07 in1.8 mm
06:20 PM 55.3°F12.9°C 35.3°F1.8°C 47% 5.2 mph N8.4 kmh N 6.7 mph10.8 kmh 30.10 in1019.3 mb 0.00 in0.0 mm 0.00 in/hr0.0 mm/hr 0.07 in1.8 mm
06:25 PM 55.1°F12.8°C 35.1°F1.7°C 47% 3.8 mph N6.1 kmh N 7.2 mph11.6 kmh 30.11 in1019.6 mb 0.00 in0.0 mm 0.00 in/hr0.0 mm/hr 0.07 in1.8 mm
06:30 PM 54.9°F12.7°C 35.5°F1.9°C 48% 5.7 mph NW9.2 kmh NW 7.6 mph12.2 kmh 30.11 in1019.6 mb 0.00 in0.0 mm 0.00 in/hr0.0 mm/hr 0.07 in1.8 mm
06:35 PM 54.7°F12.6°C 35.3°F1.8°C 48% 2.5 mph NW4.0 kmh NW 7.6 mph12.2 kmh 30.11 in1019.6 mb 0.00 in0.0 mm 0.00 in/hr0.0 mm/hr 0.07 in1.8 mm
06:40 PM 54.5°F12.5°C 35.7°F2.1°C 49% 3.0 mph W4.8 kmh W 7.6 mph12.2 kmh 30.11 in1019.6 mb 0.00 in0.0 mm 0.00 in/hr0.0 mm/hr 0.07 in1.8 mm
06:45 PM 54.4°F12.4°C 33.8°F1.0°C 46% 3.1 mph NW5.0 kmh NW 4.9 mph7.9 kmh 30.12 in1020.0 mb 0.00 in0.0 mm 0.00 in/hr0.0 mm/hr 0.07 in1.8 mm
06:49 PM 54.0°F12.2°C 33.0°F0.6°C 45% 3.7 mph WNW6.0 kmh WNW 7.8 mph12.6 kmh 30.12 in1020.0 mb 0.00 in0.0 mm 0.00 in/hr0.0 mm/hr 0.07 in1.8 mm
06:54 PM 53.8°F12.1°C 33.4°F0.8°C 46% 2.9 mph WNW4.7 kmh WNW 9.4 mph15.1 kmh 30.12 in1020.0 mb 0.00 in0.0 mm 0.00 in/hr0.0 mm/hr 0.07 in1.8 mm
06:59 PM 53.6°F12.0°C 33.2°F0.7°C 46% 2.4 mph NW3.9 kmh NW 9.4 mph15.1 kmh 30.12 in1020.0 mb 0.00 in0.0 mm 0.00 in/hr0.0 mm/hr 0.07 in1.8 mm
07:04 PM 53.5°F11.9°C 33.7°F0.9°C 47% 8.0 mph W12.9 kmh W 10.3 mph16.6 kmh 30.12 in1020.0 mb 0.00 in0.0 mm 0.00 in/hr0.0 mm/hr 0.07 in1.8 mm
07:09 PM 53.1°F11.7°C 33.3°F0.7°C 47% 9.9 mph WSW15.9 kmh WSW 12.5 mph20.1 kmh 30.12 in1020.0 mb 0.00 in0.0 mm 0.00 in/hr0.0 mm/hr 0.07 in1.8 mm
07:14 PM 52.9°F11.6°C 33.7°F0.9°C 48% 11.1 mph W17.9 kmh W 13.0 mph20.9 kmh 30.11 in1019.6 mb 0.00 in0.0 mm 0.00 in/hr0.0 mm/hr 0.07 in1.8 mm
07:19 PM 52.6°F11.4°C 33.9°F1.1°C 49% 10.6 mph WSW17.1 kmh WSW 13.0 mph20.9 kmh 30.12 in1020.0 mb 0.00 in0.0 mm 0.00 in/hr0.0 mm/hr 0.07 in1.8 mm
07:24 PM 52.2°F11.2°C 34.2°F1.2°C 50% 9.2 mph WSW14.8 kmh WSW 12.3 mph19.8 kmh 30.12 in1020.0 mb 0.00 in0.0 mm 0.00 in/hr0.0 mm/hr 0.07 in1.8 mm
07:29 PM 52.0°F11.1°C 34.5°F1.4°C 51% 11.3 mph WSW18.2 kmh WSW 14.5 mph23.3 kmh 30.11 in1019.6 mb 0.00 in0.0 mm 0.00 in/hr0.0 mm/hr 0.07 in1.8 mm
07:34 PM 52.0°F11.1°C 34.5°F1.4°C 51% 8.9 mph WSW14.3 kmh WSW 14.5 mph23.3 kmh 30.10 in1019.3 mb 0.00 in0.0 mm 0.00 in/hr0.0 mm/hr 0.07 in1.8 mm
07:39 PM 51.8°F11.0°C 34.3°F1.3°C 51% 7.4 mph WSW11.9 kmh WSW 12.3 mph19.8 kmh 30.10 in1019.3 mb 0.00 in0.0 mm 0.00 in/hr0.0 mm/hr 0.07 in1.8 mm
07:44 PM 51.8°F11.0°C 34.7°F1.5°C 52% 8.8 mph SW14.2 kmh SW 12.3 mph19.8 kmh 30.10 in1019.3 mb 0.00 in0.0 mm 0.00 in/hr0.0 mm/hr 0.07 in1.8 mm
07:49 PM 51.7°F10.9°C 34.6°F1.4°C 52% 10.1 mph WSW16.3 kmh WSW 12.3 mph19.8 kmh 30.11 in1019.6 mb 0.00 in0.0 mm 0.00 in/hr0.0 mm/hr 0.07 in1.8 mm
07:54 PM 51.3°F10.7°C 34.3°F1.3°C 52% 7.6 mph WSW12.2 kmh WSW 11.6 mph18.7 kmh 30.11 in1019.6 mb 0.00 in0.0 mm 0.00 in/hr0.0 mm/hr 0.07 in1.8 mm
07:59 PM 51.1°F10.6°C 34.1°F1.2°C 52% 5.4 mph W8.7 kmh W 11.4 mph18.3 kmh 30.11 in1019.6 mb 0.00 in0.0 mm 0.00 in/hr0.0 mm/hr 0.07 in1.8 mm
08:04 PM 50.8°F10.4°C 34.2°F1.2°C 53% 4.0 mph WSW6.4 kmh WSW 8.3 mph13.4 kmh 30.11 in1019.6 mb 0.00 in0.0 mm 0.00 in/hr0.0 mm/hr 0.07 in1.8 mm
08:09 PM 50.6°F10.3°C 34.0°F1.1°C 53% 5.8 mph W9.3 kmh W 8.5 mph13.7 kmh 30.11 in1019.6 mb 0.00 in0.0 mm 0.00 in/hr0.0 mm/hr 0.07 in1.8 mm
08:14 PM 50.4°F10.2°C 34.4°F1.3°C 54% 5.5 mph WSW8.9 kmh WSW 8.5 mph13.7 kmh 30.12 in1020.0 mb 0.00 in0.0 mm 0.00 in/hr0.0 mm/hr 0.07 in1.8 mm
08:19 PM 50.2°F10.1°C 34.7°F1.5°C 55% 5.1 mph W8.2 kmh W 8.5 mph13.7 kmh 30.12 in1020.0 mb 0.00 in0.0 mm 0.00 in/hr0.0 mm/hr 0.07 in1.8 mm
08:24 PM 50.0°F10.0°C 34.9°F1.6°C 56% 5.7 mph WNW9.2 kmh WNW 8.5 mph13.7 kmh 30.12 in1020.0 mb 0.00 in0.0 mm 0.00 in/hr0.0 mm/hr 0.07 in1.8 mm
08:29 PM 49.9°F9.9°C 34.7°F1.5°C 56% 4.3 mph WNW6.9 kmh WNW 8.3 mph13.4 kmh 30.12 in1020.0 mb 0.00 in0.0 mm 0.00 in/hr0.0 mm/hr 0.07 in1.8 mm
08:34 PM 49.7°F9.8°C 34.1°F1.2°C 55% 2.9 mph WSW4.7 kmh WSW 6.9 mph11.1 kmh 30.13 in1020.3 mb 0.00 in0.0 mm 0.00 in/hr0.0 mm/hr 0.07 in1.8 mm
08:39 PM 49.3°F9.6°C 35.2°F1.8°C 58% 5.5 mph W8.9 kmh W 8.9 mph14.3 kmh 30.13 in1020.3 mb 0.00 in0.0 mm 0.00 in/hr0.0 mm/hr 0.07 in1.8 mm
08:44 PM 49.1°F9.5°C 35.0°F1.7°C 58% 4.6 mph W7.4 kmh W 8.9 mph14.3 kmh 30.13 in1020.3 mb 0.00 in0.0 mm 0.00 in/hr0.0 mm/hr 0.07 in1.8 mm
08:49 PM 49.1°F9.5°C 35.5°F1.9°C 59% 4.8 mph W7.7 kmh W 7.8 mph12.6 kmh 30.13 in1020.3 mb 0.00 in0.0 mm 0.00 in/hr0.0 mm/hr 0.07 in1.8 mm
08:54 PM 49.0°F9.4°C 35.7°F2.1°C 60% 4.8 mph W7.7 kmh W 7.8 mph12.6 kmh 30.13 in1020.3 mb 0.00 in0.0 mm 0.00 in/hr0.0 mm/hr 0.07 in1.8 mm
08:59 PM 49.0°F9.4°C 36.1°F2.3°C 61% 6.6 mph WSW10.6 kmh WSW 8.1 mph13.0 kmh 30.13 in1020.3 mb 0.00 in0.0 mm 0.00 in/hr0.0 mm/hr 0.07 in1.8 mm
09:04 PM 48.8°F9.3°C 36.0°F2.2°C 61% 5.7 mph W9.2 kmh W 8.5 mph13.7 kmh 30.14 in1020.7 mb 0.00 in0.0 mm 0.00 in/hr0.0 mm/hr 0.07 in1.8 mm
09:09 PM 48.6°F9.2°C 35.8°F2.1°C 61% 6.0 mph W9.7 kmh W 8.5 mph13.7 kmh 30.14 in1020.7 mb 0.00 in0.0 mm 0.00 in/hr0.0 mm/hr 0.07 in1.8 mm
09:14 PM 48.6°F9.2°C 35.8°F2.1°C 61% 5.5 mph W8.9 kmh W 7.4 mph11.9 kmh 30.14 in1020.7 mb 0.00 in0.0 mm 0.00 in/hr0.0 mm/hr 0.07 in1.8 mm
09:19 PM 48.6°F9.2°C 35.8°F2.1°C 61% 6.1 mph W9.8 kmh W 8.5 mph13.7 kmh 30.14 in1020.7 mb 0.00 in0.0 mm 0.00 in/hr0.0 mm/hr 0.07 in1.8 mm
09:25 PM 48.6°F9.2°C 35.8°F2.1°C 61% 5.2 mph WSW8.4 kmh WSW 8.5 mph13.7 kmh 30.15 in1021.0 mb 0.00 in0.0 mm 0.00 in/hr0.0 mm/hr 0.07 in1.8 mm
09:30 PM 48.4°F9.1°C 35.6°F2.0°C 61% 6.3 mph W10.1 kmh W 8.7 mph14.0 kmh 30.15 in1021.0 mb 0.00 in0.0 mm 0.00 in/hr0.0 mm/hr 0.07 in1.8 mm
09:35 PM 48.4°F9.1°C 35.6°F2.0°C 61% 5.7 mph WSW9.2 kmh WSW 9.8 mph15.8 kmh 30.15 in1021.0 mb 0.00 in0.0 mm 0.00 in/hr0.0 mm/hr 0.07 in1.8 mm
09:40 PM 48.4°F9.1°C 35.6°F2.0°C 61% 3.7 mph W6.0 kmh W 9.8 mph15.8 kmh 30.15 in1021.0 mb 0.00 in0.0 mm 0.00 in/hr0.0 mm/hr 0.07 in1.8 mm
09:45 PM 48.4°F9.1°C 35.6°F2.0°C 61% 4.7 mph W7.6 kmh W 7.6 mph12.2 kmh 30.15 in1021.0 mb 0.00 in0.0 mm 0.00 in/hr0.0 mm/hr 0.07 in1.8 mm
09:50 PM 48.2°F9.0°C 35.5°F1.9°C 61% 4.2 mph W6.8 kmh W 7.6 mph12.2 kmh 30.15 in1021.0 mb 0.00 in0.0 mm 0.00 in/hr0.0 mm/hr 0.07 in1.8 mm
09:55 PM 48.2°F9.0°C 35.5°F1.9°C 61% 6.3 mph WSW10.1 kmh WSW 8.7 mph14.0 kmh 30.15 in1021.0 mb 0.00 in0.0 mm 0.00 in/hr0.0 mm/hr 0.07 in1.8 mm
10:00 PM 48.1°F8.9°C 35.3°F1.8°C 61% 4.9 mph WSW7.9 kmh WSW 8.7 mph14.0 kmh 30.15 in1021.0 mb 0.00 in0.0 mm 0.00 in/hr0.0 mm/hr 0.07 in1.8 mm
10:05 PM 48.1°F8.9°C 35.3°F1.8°C 61% 4.1 mph WSW6.6 kmh WSW 7.2 mph11.6 kmh 30.16 in1021.3 mb 0.00 in0.0 mm 0.00 in/hr0.0 mm/hr 0.07 in1.8 mm
10:10 PM 48.1°F8.9°C 34.9°F1.6°C 60% 4.0 mph WSW6.4 kmh WSW 7.2 mph11.6 kmh 30.15 in1021.0 mb 0.00 in0.0 mm 0.00 in/hr0.0 mm/hr 0.07 in1.8 mm
10:15 PM 47.9°F8.8°C 34.7°F1.5°C 60% 4.5 mph WSW7.2 kmh WSW 7.2 mph11.6 kmh 30.16 in1021.3 mb 0.00 in0.0 mm 0.00 in/hr0.0 mm/hr 0.07 in1.8 mm
10:21 PM 47.9°F8.8°C 34.7°F1.5°C 60% 4.9 mph WSW7.9 kmh WSW 6.7 mph10.8 kmh 30.16 in1021.3 mb 0.00 in0.0 mm 0.00 in/hr0.0 mm/hr 0.07 in1.8 mm
10:26 PM 47.9°F8.8°C 35.1°F1.7°C 61% 5.5 mph WSW8.9 kmh WSW 9.6 mph15.4 kmh 30.16 in1021.3 mb 0.00 in0.0 mm 0.00 in/hr0.0 mm/hr 0.07 in1.8 mm
10:31 PM 47.9°F8.8°C 35.1°F1.7°C 61% 4.2 mph WSW6.8 kmh WSW 9.6 mph15.4 kmh 30.16 in1021.3 mb 0.00 in0.0 mm 0.00 in/hr0.0 mm/hr 0.07 in1.8 mm
10:36 PM 47.9°F8.8°C 35.1°F1.7°C 61% 5.6 mph WSW9.0 kmh WSW 8.5 mph13.7 kmh 30.16 in1021.3 mb 0.00 in0.0 mm 0.00 in/hr0.0 mm/hr 0.07 in1.8 mm
10:42 PM 47.7°F8.7°C 34.9°F1.6°C 61% 5.0 mph WSW8.0 kmh WSW 8.7 mph14.0 kmh 30.16 in1021.3 mb 0.00 in0.0 mm 0.00 in/hr0.0 mm/hr 0.07 in1.8 mm
10:48 PM 47.5°F8.6°C 34.7°F1.5°C 61% 4.1 mph WSW6.6 kmh WSW 7.2 mph11.6 kmh 30.16 in1021.3 mb 0.00 in0.0 mm 0.00 in/hr0.0 mm/hr 0.07 in1.8 mm
10:53 PM 47.3°F8.5°C 34.6°F1.4°C 61% 2.8 mph WSW4.5 kmh WSW 7.8 mph12.6 kmh 30.16 in1021.3 mb 0.00 in0.0 mm 0.00 in/hr0.0 mm/hr 0.07 in1.8 mm
10:58 PM 47.2°F8.4°C 34.4°F1.3°C 61% 3.2 mph SW5.1 kmh SW 7.8 mph12.6 kmh 30.16 in1021.3 mb 0.00 in0.0 mm 0.00 in/hr0.0 mm/hr 0.07 in1.8 mm
11:03 PM 47.2°F8.4°C 34.4°F1.3°C 61% 1.0 mph SW1.6 kmh SW 5.8 mph9.3 kmh 30.16 in1021.3 mb 0.00 in0.0 mm 0.00 in/hr0.0 mm/hr 0.07 in1.8 mm
11:09 PM 47.0°F8.3°C 34.2°F1.2°C 61% 1.9 mph SW3.1 kmh SW 2.9 mph4.7 kmh 30.17 in1021.7 mb 0.00 in0.0 mm 0.00 in/hr0.0 mm/hr 0.07 in1.8 mm
11:14 PM 46.8°F8.2°C 34.0°F1.1°C 61% 3.0 mph WSW4.8 kmh WSW 4.0 mph6.4 kmh 30.17 in1021.7 mb 0.00 in0.0 mm 0.00 in/hr0.0 mm/hr 0.07 in1.8 mm
11:19 PM 46.4°F8.0°C 33.7°F0.9°C 61% 2.9 mph WSW4.7 kmh WSW 4.3 mph6.9 kmh 30.17 in1021.7 mb 0.00 in0.0 mm 0.00 in/hr0.0 mm/hr 0.07 in1.8 mm
11:24 PM 46.4°F8.0°C 34.1°F1.2°C 62% 1.9 mph SW3.1 kmh SW 4.3 mph6.9 kmh 30.17 in1021.7 mb 0.00 in0.0 mm 0.00 in/hr0.0 mm/hr 0.07 in1.8 mm
11:30 PM 46.1°F7.8°C 33.4°F0.8°C 61% 2.3 mph SW3.7 kmh SW 3.4 mph5.5 kmh 30.18 in1022.0 mb 0.00 in0.0 mm 0.00 in/hr0.0 mm/hr 0.07 in1.8 mm
11:36 PM 45.7°F7.6°C 33.9°F1.1°C 63% 5.2 mph WSW8.4 kmh WSW 6.7 mph10.8 kmh 30.18 in1022.0 mb 0.00 in0.0 mm 0.00 in/hr0.0 mm/hr 0.07 in1.8 mm
11:41 PM 45.9°F7.7°C 34.0°F1.1°C 63% 4.1 mph WSW6.6 kmh WSW 6.7 mph10.8 kmh 30.18 in1022.0 mb 0.00 in0.0 mm 0.00 in/hr0.0 mm/hr 0.07 in1.8 mm
11:46 PM 46.1°F7.8°C 34.6°F1.4°C 64% 4.1 mph W6.6 kmh W 5.8 mph9.3 kmh 30.18 in1022.0 mb 0.00 in0.0 mm 0.00 in/hr0.0 mm/hr 0.07 in1.8 mm
11:51 PM 46.1°F7.8°C 34.1°F1.2°C 63% 3.6 mph WSW5.8 kmh WSW 6.3 mph10.1 kmh 30.18 in1022.0 mb 0.00 in0.0 mm 0.00 in/hr0.0 mm/hr 0.07 in1.8 mm
11:56 PM 46.1°F7.8°C 34.1°F1.2°C 63% 4.0 mph WSW6.4 kmh WSW 6.3 mph10.1 kmh 30.18 in1022.0 mb 0.00 in0.0 mm 0.00 in/hr0.0 mm/hr 0.07 in1.8 mm